createdAt,value
2022-09-16T00:02:05.010Z,74.00
2022-09-16T00:04:32.137Z,74.00
2022-09-16T00:06:59.079Z,73.80
2022-09-16T00:09:26.017Z,73.70
2022-09-16T00:11:53.102Z,73.70
2022-09-16T00:14:20.031Z,73.60
2022-09-16T00:16:47.185Z,73.60
2022-09-16T00:19:14.482Z,73.70
2022-09-16T00:21:41.496Z,73.80
2022-09-16T00:24:14.002Z,73.90
2022-09-16T00:26:41.342Z,74.00
2022-09-16T00:29:08.451Z,74.00
2022-09-16T00:31:35.813Z,74.00
2022-09-16T00:34:03.351Z,73.90
2022-09-16T00:36:31.034Z,73.80
2022-09-16T00:38:58.064Z,74.00
2022-09-16T00:41:33.837Z,74.30
2022-09-16T00:44:03.247Z,74.70
2022-09-16T00:46:36.130Z,74.80
2022-09-16T00:49:16.973Z,74.90
2022-09-16T00:51:47.931Z,75.00
2022-09-16T00:54:17.745Z,74.80
2022-09-16T00:56:48.174Z,74.90
2022-09-16T00:59:24.734Z,75.00
2022-09-16T01:01:53.791Z,75.00
2022-09-16T01:04:30.417Z,74.90
2022-09-16T01:06:57.664Z,74.70
2022-09-16T01:09:25.867Z,74.50
2022-09-16T01:11:52.797Z,74.30
2022-09-16T01:14:40.674Z,74.20
2022-09-16T01:17:45.079Z,74.30
2022-09-16T01:20:36.857Z,74.50
2022-09-16T01:23:41.377Z,74.70
2022-09-16T01:27:01.951Z,74.80
2022-09-16T01:29:28.856Z,74.80
2022-09-16T01:32:21.704Z,74.60
2022-09-16T01:35:08.681Z,74.50
2022-09-16T01:37:59.637Z,74.40
2022-09-16T01:40:43.562Z,74.30
2022-09-16T01:43:42.501Z,74.20
2022-09-16T01:46:37.835Z,74.10
2022-09-16T01:49:22.987Z,74.10
2022-09-16T01:52:06.774Z,74.10
2022-09-16T01:54:41.367Z,74.10
2022-09-16T01:57:13.884Z,74.40
2022-09-16T02:00:06.783Z,74.40
2022-09-16T02:02:47.160Z,74.60
2022-09-16T02:05:26.562Z,75.10
2022-09-16T02:08:01.216Z,75.30
2022-09-16T02:10:44.937Z,75.40
2022-09-16T02:13:19.528Z,75.40
2022-09-16T02:15:51.508Z,75.50
2022-09-16T02:18:24.385Z,76.20
2022-09-16T02:20:53.718Z,75.50
2022-09-16T02:23:24.677Z,75.60
2022-09-16T02:25:53.581Z,75.90
2022-09-16T02:28:34.597Z,76.20
2022-09-16T02:31:06.049Z,76.30
2022-09-16T02:33:55.771Z,76.20
2022-09-16T02:36:25.348Z,76.50
2022-09-16T02:39:00.104Z,76.60
2022-09-16T02:41:27.434Z,76.60
2022-09-16T02:43:55.044Z,76.30
2022-09-16T02:46:22.030Z,76.30
2022-09-16T02:49:04.169Z,76.50
2022-09-16T02:51:42.813Z,76.80
2022-09-16T02:54:18.679Z,76.90
2022-09-16T02:56:46.319Z,77.20
2022-09-16T02:59:14.941Z,77.40
2022-09-16T03:01:46.143Z,77.50
2022-09-16T03:04:15.908Z,77.40
2022-09-16T03:06:43.140Z,77.30
2022-09-16T03:09:13.174Z,77.50
2022-09-16T03:11:42.922Z,77.70
2022-09-16T03:14:30.907Z,77.70
2022-09-16T03:17:22.718Z,78.00
2022-09-16T03:19:55.354Z,78.10
2022-09-16T03:22:54.558Z,78.10
2022-09-16T03:25:45.211Z,78.30
2022-09-16T03:28:43.183Z,78.50
2022-09-16T03:31:32.356Z,78.90
2022-09-16T03:34:16.739Z,78.70
2022-09-16T03:36:52.089Z,78.60
2022-09-16T03:39:20.631Z,78.50
2022-09-16T03:41:47.824Z,78.50
2022-09-16T03:44:15.036Z,78.80
2022-09-16T03:46:42.114Z,79.10
2022-09-16T03:49:09.301Z,79.20
2022-09-16T03:51:36.371Z,79.20
2022-09-16T03:54:03.692Z,79.00
2022-09-16T03:56:31.102Z,79.20
2022-09-16T03:58:58.111Z,79.50
2022-09-16T04:01:25.198Z,79.80
2022-09-16T04:03:52.448Z,79.90
2022-09-16T04:06:19.865Z,79.90
2022-09-16T04:08:47.833Z,79.80
2022-09-16T04:11:14.780Z,79.70
2022-09-16T04:13:41.783Z,79.90
2022-09-16T04:16:08.982Z,80.00
2022-09-16T04:18:36.568Z,80.00
2022-09-16T04:21:04.954Z,79.90
2022-09-16T04:23:31.927Z,79.90
2022-09-16T04:26:03.579Z,80.10
2022-09-16T04:28:33.693Z,80.30
2022-09-16T04:31:02.529Z,80.50
2022-09-16T04:33:31.431Z,80.60
2022-09-16T04:36:08.637Z,80.60
2022-09-16T04:38:39.091Z,80.80
2022-09-16T04:41:11.932Z,80.90
2022-09-16T04:43:39.571Z,80.70
2022-09-16T04:46:07.309Z,80.50
2022-09-16T04:48:35.162Z,80.40
2022-09-16T04:51:05.531Z,80.30
2022-09-16T04:53:33.336Z,80.30
2022-09-16T04:56:08.701Z,80.20
2022-09-16T04:58:36.433Z,79.90
2022-09-16T05:01:21.154Z,79.70
2022-09-16T05:03:50.821Z,80.10
2022-09-16T05:06:27.075Z,80.30
2022-09-16T05:08:55.774Z,80.40
2022-09-16T05:11:28.351Z,80.40
2022-09-16T05:13:59.129Z,80.50
2022-09-16T05:16:27.476Z,80.50
2022-09-16T05:18:59.954Z,79.90
2022-09-16T05:21:28.449Z,80.00
2022-09-16T05:23:59.561Z,80.20
2022-09-16T05:26:28.747Z,80.70
2022-09-16T05:28:55.879Z,80.00
2022-09-16T05:31:31.366Z,80.00
2022-09-16T05:34:07.151Z,80.00
2022-09-16T05:36:36.416Z,79.90
2022-09-16T05:41:54.392Z,80.20
2022-09-16T05:44:21.432Z,80.50
2022-09-16T05:46:48.634Z,80.60
2022-09-16T05:49:20.799Z,80.80
2022-09-16T05:51:48.931Z,81.40
2022-09-16T05:54:18.607Z,80.70
2022-09-16T05:56:46.708Z,80.50
2022-09-16T05:59:15.179Z,80.20
2022-09-16T06:01:42.813Z,79.80
2022-09-16T06:04:12.683Z,79.30
2022-09-16T06:06:48.732Z,78.60
2022-09-16T06:09:21.078Z,78.10
2022-09-16T06:11:50.429Z,77.40
2022-09-16T06:14:19.046Z,77.20
2022-09-16T06:16:46.721Z,77.50
2022-09-16T06:19:20.516Z,77.30
2022-09-16T06:21:48.696Z,76.90
2022-09-16T06:24:17.928Z,76.70
2022-09-16T06:26:46.618Z,75.70
2022-09-16T06:29:14.976Z,75.20
2022-09-16T06:31:42.736Z,75.00
2022-09-16T06:34:15.117Z,74.60
2022-09-16T06:36:45.112Z,74.20
2022-09-16T06:39:14.451Z,74.00
2022-09-16T06:41:41.567Z,73.60
2022-09-16T06:44:08.727Z,73.50
2022-09-16T06:46:35.983Z,73.40
2022-09-16T06:49:05.761Z,73.40
2022-09-16T06:51:34.639Z,73.40
2022-09-16T06:54:04.530Z,73.40
2022-09-16T06:56:31.704Z,72.90
2022-09-16T06:58:58.798Z,72.70
2022-09-16T07:01:30.551Z,72.80
2022-09-16T07:03:58.926Z,73.60
2022-09-16T07:06:52.322Z,74.20
2022-09-16T07:09:17.938Z,73.40
2022-09-16T07:11:45.019Z,73.70
2022-09-16T07:14:12.395Z,73.90
2022-09-16T07:16:39.521Z,73.80
2022-09-16T07:19:06.599Z,73.90
2022-09-16T07:21:33.744Z,74.00
2022-09-16T07:24:02.759Z,73.10
2022-09-16T07:26:33.897Z,73.30
2022-09-16T07:29:03.261Z,73.60
2022-09-16T07:31:33.171Z,73.50
2022-09-16T07:34:04.979Z,73.50
2022-09-16T07:36:37.848Z,72.80
2022-09-16T07:39:05.938Z,73.00
2022-09-16T07:41:36.329Z,72.50
2022-09-16T07:44:04.869Z,71.80
2022-09-16T07:46:34.991Z,71.40
2022-09-16T07:49:03.276Z,71.20
2022-09-16T07:51:31.331Z,71.00
2022-09-16T07:54:02.375Z,71.40
2022-09-16T07:56:31.475Z,71.10
2022-09-16T07:58:58.749Z,70.60
2022-09-16T08:01:26.614Z,70.60
2022-09-16T08:03:55.620Z,69.60
2022-09-16T08:06:28.081Z,69.30
2022-09-16T08:09:02.499Z,68.90
2022-09-16T08:11:37.520Z,68.30
2022-09-16T08:14:04.530Z,67.90
2022-09-16T08:16:31.537Z,67.60
2022-09-16T08:18:59.232Z,67.40
2022-09-16T08:21:29.148Z,67.00
2022-09-16T08:23:57.425Z,66.70
2022-09-16T08:26:25.591Z,66.20
2022-09-16T08:29:09.888Z,66.00
2022-09-16T08:31:38.464Z,65.90
2022-09-16T08:34:06.210Z,65.70
2022-09-16T08:36:33.921Z,65.50
2022-09-16T08:39:01.489Z,64.50
2022-09-16T08:41:31.616Z,64.40
2022-09-16T08:44:17.040Z,63.80
2022-09-16T08:46:58.967Z,62.80
2022-09-16T08:49:46.527Z,61.90
2022-09-16T08:52:38.084Z,62.20
2022-09-16T08:55:31.705Z,62.20
2022-09-16T08:58:19.159Z,62.60
2022-09-16T09:01:04.203Z,62.40
2022-09-16T09:03:40.434Z,61.40
2022-09-16T09:06:36.854Z,61.20
2022-09-16T09:09:31.412Z,59.90
2022-09-16T09:11:58.367Z,60.00
2022-09-16T09:14:44.272Z,60.00
2022-09-16T09:17:48.457Z,60.00
2022-09-16T09:20:26.483Z,59.90
2022-09-16T09:23:10.553Z,60.50
2022-09-16T09:25:46.511Z,59.70
2022-09-16T09:28:26.609Z,59.50
2022-09-16T09:31:20.811Z,59.00
2022-09-16T09:34:00.941Z,58.30
2022-09-16T09:36:34.139Z,57.80
2022-09-16T09:39:16.469Z,57.30
2022-09-16T09:41:48.118Z,56.50
2022-09-16T09:44:39.355Z,57.40
2022-09-16T09:47:13.075Z,57.20
2022-09-16T09:49:48.176Z,55.80
2022-09-16T09:52:23.454Z,56.30
2022-09-16T09:54:51.847Z,55.50
2022-09-16T09:57:38.147Z,54.70
2022-09-16T10:00:21.121Z,55.10
2022-09-16T10:02:50.014Z,55.90
2022-09-16T10:05:22.843Z,55.90
2022-09-16T10:07:52.883Z,56.50
2022-09-16T10:10:23.169Z,54.70
2022-09-16T10:12:50.610Z,54.50
2022-09-16T10:15:25.265Z,55.30
2022-09-16T10:17:54.316Z,55.10
2022-09-16T10:20:43.328Z,54.10
2022-09-16T10:23:19.624Z,54.20
2022-09-16T10:25:46.947Z,55.40
2022-09-16T10:28:25.555Z,55.10
2022-09-16T10:30:58.435Z,55.00
2022-09-16T10:33:45.928Z,54.40
2022-09-16T10:36:23.237Z,53.80
2022-09-16T10:39:04.500Z,54.40
2022-09-16T10:41:46.389Z,54.30
2022-09-16T10:44:21.155Z,53.30
2022-09-16T10:47:03.510Z,53.30
2022-09-16T10:49:43.821Z,51.80
2022-09-16T10:52:23.481Z,52.60
2022-09-16T10:54:51.054Z,51.50
2022-09-16T10:57:33.247Z,51.50
2022-09-16T11:00:10.799Z,51.50
2022-09-16T11:02:46.631Z,51.80
2022-09-16T11:05:35.827Z,51.00
2022-09-16T11:08:17.595Z,50.40
2022-09-16T11:10:57.314Z,50.10
2022-09-16T11:13:43.470Z,50.10
2022-09-16T11:16:22.614Z,51.00
2022-09-16T11:19:17.814Z,50.00
2022-09-16T11:22:01.161Z,50.30
2022-09-16T11:25:06.794Z,50.50
2022-09-16T11:27:43.960Z,49.40
2022-09-16T11:30:15.572Z,49.80
2022-09-16T11:33:11.797Z,49.70
2022-09-16T11:35:47.812Z,48.80
2022-09-16T11:38:46.831Z,49.60
2022-09-16T11:41:24.964Z,49.30
2022-09-16T11:43:57.978Z,49.30
2022-09-16T11:46:41.950Z,49.30
2022-09-16T11:49:40.132Z,48.90
2022-09-16T11:52:37.292Z,48.60
2022-09-16T11:55:07.048Z,48.20
2022-09-16T11:57:39.381Z,48.20
2022-09-16T12:00:13.164Z,47.10
2022-09-16T12:02:49.821Z,45.90
2022-09-16T12:05:23.069Z,47.00
2022-09-16T12:08:03.419Z,47.30
2022-09-16T12:10:43.243Z,48.20
2022-09-16T12:13:29.767Z,48.40
2022-09-16T12:16:02.324Z,48.30
2022-09-16T12:18:43.145Z,47.90
2022-09-16T12:21:16.269Z,47.60
2022-09-16T12:23:48.159Z,47.20
2022-09-16T12:26:26.810Z,47.20
2022-09-16T12:29:09.963Z,47.50
2022-09-16T12:32:05.937Z,48.10
2022-09-16T12:34:46.136Z,47.80
2022-09-16T12:37:28.307Z,48.30
2022-09-16T12:39:55.493Z,49.30
2022-09-16T12:42:44.480Z,48.20
2022-09-16T12:45:55.017Z,48.20
2022-09-16T12:48:31.294Z,48.10
2022-09-16T12:51:01.378Z,48.30
2022-09-16T12:53:49.300Z,48.30
2022-09-16T12:56:32.589Z,48.20
2022-09-16T12:59:20.372Z,48.20
2022-09-16T13:02:06.601Z,48.80
2022-09-16T13:04:50.064Z,48.10
2022-09-16T13:07:30.031Z,47.90
2022-09-16T13:10:53.806Z,47.90
2022-09-16T13:13:31.485Z,48.10
2022-09-16T13:16:00.667Z,48.00
2022-09-16T13:18:39.410Z,48.10
2022-09-16T13:21:22.917Z,48.20
2022-09-16T13:24:12.727Z,48.10
2022-09-16T13:26:45.022Z,47.40
2022-09-16T13:29:34.000Z,47.00
2022-09-16T13:32:01.448Z,47.70
2022-09-16T13:34:28.448Z,49.00
2022-09-16T13:36:55.750Z,49.60
2022-09-16T13:39:31.641Z,50.20
2022-09-16T13:42:11.191Z,50.60
2022-09-16T13:44:41.195Z,51.00
2022-09-16T13:47:11.228Z,50.90
2022-09-16T13:49:47.219Z,51.50
2022-09-16T13:52:24.671Z,51.70
2022-09-16T13:55:10.009Z,51.50
2022-09-16T13:57:48.463Z,51.60
2022-09-16T14:00:22.952Z,52.30
2022-09-16T14:03:23.739Z,52.20
2022-09-16T14:06:05.962Z,52.20
2022-09-16T14:08:35.722Z,52.50
2022-09-16T14:11:26.346Z,52.00
2022-09-16T14:14:45.734Z,52.40
2022-09-16T14:17:20.882Z,53.00
2022-09-16T14:19:52.641Z,53.80
2022-09-16T14:22:23.119Z,54.40
2022-09-16T14:24:56.689Z,54.40
2022-09-16T14:27:43.764Z,54.50
2022-09-16T14:30:19.478Z,53.90
2022-09-16T14:32:48.226Z,53.90
2022-09-16T14:35:24.598Z,53.20
2022-09-16T14:37:56.378Z,53.40
2022-09-16T14:40:25.794Z,53.30
2022-09-16T14:43:03.481Z,52.40
2022-09-16T14:45:32.153Z,51.40
2022-09-16T14:48:02.432Z,52.20
2022-09-16T14:50:33.464Z,52.40
2022-09-16T14:53:03.616Z,51.30
2022-09-16T14:55:34.827Z,50.70
2022-09-16T14:58:02.231Z,50.70
2022-09-16T15:00:52.348Z,50.90
2022-09-16T15:03:27.208Z,50.60
2022-09-16T15:05:56.284Z,51.20
2022-09-16T15:08:47.746Z,51.60
2022-09-16T15:11:43.579Z,50.90
2022-09-16T15:14:09.434Z,50.90
2022-09-16T15:16:51.652Z,51.30
2022-09-16T15:19:39.300Z,51.70
2022-09-16T15:22:11.124Z,50.70
2022-09-16T15:24:41.176Z,51.90
2022-09-16T15:27:08.763Z,50.90
2022-09-16T15:29:46.891Z,50.90
2022-09-16T15:32:18.817Z,51.10
2022-09-16T15:34:45.901Z,50.90
2022-09-16T15:37:31.979Z,51.30
2022-09-16T15:40:22.053Z,51.40
2022-09-16T15:43:01.175Z,51.00
2022-09-16T15:45:28.667Z,51.00
2022-09-16T15:48:02.611Z,51.50
2022-09-16T15:50:38.477Z,51.80
2022-09-16T15:53:13.369Z,51.90
2022-09-16T15:55:51.567Z,52.60
2022-09-16T15:58:43.952Z,51.90
2022-09-16T16:01:40.155Z,52.50
2022-09-16T16:04:10.736Z,53.10
2022-09-16T16:06:43.928Z,52.90
2022-09-16T16:09:29.475Z,53.00
2022-09-16T16:11:58.179Z,53.60
2022-09-16T16:14:32.215Z,53.80
2022-09-16T16:17:13.656Z,54.30
2022-09-16T16:19:42.839Z,54.40
2022-09-16T16:22:10.452Z,54.80
2022-09-16T16:24:38.197Z,55.00
2022-09-16T16:27:05.279Z,55.00
2022-09-16T16:29:32.475Z,54.70
2022-09-16T16:31:59.458Z,54.60
2022-09-16T16:34:26.576Z,54.60
2022-09-16T16:36:53.954Z,54.80
2022-09-16T16:39:21.227Z,55.70
2022-09-16T16:41:48.184Z,55.40
2022-09-16T16:44:15.609Z,55.80
2022-09-16T16:46:42.695Z,56.00
2022-09-16T16:49:09.732Z,56.10
2022-09-16T16:51:36.747Z,56.20
2022-09-16T16:54:03.964Z,56.70
2022-09-16T16:56:31.251Z,57.00
2022-09-16T16:58:58.289Z,57.10
2022-09-16T17:01:26.815Z,57.60
2022-09-16T17:03:54.621Z,58.20
2022-09-16T17:06:21.564Z,58.70
2022-09-16T17:08:49.081Z,58.40
2022-09-16T17:11:19.739Z,58.60
2022-09-16T17:13:49.924Z,59.00
2022-09-16T17:16:19.720Z,59.10
2022-09-16T17:18:47.552Z,58.70
2022-09-16T17:21:18.849Z,58.40
2022-09-16T17:23:45.906Z,58.10
2022-09-16T17:26:13.971Z,57.80
2022-09-16T17:28:43.509Z,57.40
2022-09-16T17:31:12.321Z,55.90
2022-09-16T17:33:39.377Z,54.00
2022-09-16T17:36:08.544Z,53.10
2022-09-16T17:38:36.159Z,52.60
2022-09-16T17:41:09.156Z,52.00
2022-09-16T17:43:36.475Z,51.20
2022-09-16T17:46:06.867Z,50.90
2022-09-16T17:48:34.007Z,50.50
2022-09-16T17:51:01.384Z,50.40
2022-09-16T17:53:28.293Z,50.30
2022-09-16T17:56:12.537Z,50.30
2022-09-16T17:58:42.234Z,50.40
2022-09-16T18:01:15.061Z,50.40
2022-09-16T18:03:43.707Z,51.00
2022-09-16T18:06:20.811Z,51.80
2022-09-16T18:08:49.090Z,52.20
2022-09-16T18:11:17.379Z,52.40
2022-09-16T18:13:46.701Z,52.60
2022-09-16T18:16:19.194Z,52.80
2022-09-16T18:18:50.051Z,53.10
2022-09-16T18:21:19.781Z,53.40
2022-09-16T18:23:50.811Z,53.50
2022-09-16T18:26:18.941Z,53.80
2022-09-16T18:29:09.190Z,53.90
2022-09-16T18:31:36.406Z,53.90
2022-09-16T18:34:03.934Z,54.00
2022-09-16T18:36:32.728Z,53.90
2022-09-16T18:38:59.833Z,53.90
2022-09-16T18:41:29.340Z,53.90
2022-09-16T18:43:59.422Z,53.90
2022-09-16T18:46:29.515Z,54.00
2022-09-16T18:48:58.438Z,54.20
2022-09-16T18:51:37.126Z,54.20
2022-09-16T18:54:06.948Z,54.50
2022-09-16T18:56:35.980Z,54.50
2022-09-16T18:59:23.620Z,54.80
2022-09-16T19:01:53.229Z,55.10
2022-09-16T19:04:24.549Z,55.40
2022-09-16T19:06:54.124Z,55.80
2022-09-16T19:09:23.853Z,56.10
2022-09-16T19:11:55.098Z,56.70
2022-09-16T19:14:24.879Z,57.50
2022-09-16T19:16:52.797Z,57.90
2022-09-16T19:19:20.786Z,58.70
2022-09-16T19:21:48.229Z,59.10
2022-09-16T19:24:20.859Z,59.20
2022-09-16T19:26:49.589Z,59.20
2022-09-16T19:29:17.420Z,59.50
2022-09-16T19:31:46.601Z,59.40
2022-09-16T19:34:15.145Z,59.30
2022-09-16T19:36:43.130Z,59.20
2022-09-16T19:39:12.055Z,59.20
2022-09-16T19:41:41.439Z,59.30
2022-09-16T19:44:12.547Z,59.20
2022-09-16T19:46:42.559Z,59.20
2022-09-16T19:49:14.535Z,59.20
2022-09-16T19:51:42.328Z,59.20
2022-09-16T19:54:09.385Z,59.10
2022-09-16T19:56:36.398Z,59.20
2022-09-16T19:59:03.434Z,59.40
2022-09-16T20:01:33.406Z,59.60
2022-09-16T20:04:02.126Z,59.80
2022-09-16T20:06:36.120Z,59.90
2022-09-16T20:09:06.649Z,60.00
2022-09-16T20:11:35.937Z,60.10
2022-09-16T20:14:06.524Z,60.20
2022-09-16T20:16:36.791Z,60.20
2022-09-16T20:19:05.847Z,60.20
2022-09-16T20:21:34.957Z,60.40
2022-09-16T20:24:05.581Z,60.30
2022-09-16T20:26:33.391Z,60.70
2022-09-16T20:29:00.606Z,60.00
2022-09-16T20:31:32.616Z,60.70
2022-09-16T20:34:00.128Z,60.10
2022-09-16T20:36:32.279Z,60.40
2022-09-16T20:39:00.310Z,61.10
2022-09-16T20:41:33.004Z,61.50
2022-09-16T20:44:00.179Z,61.90
2022-09-16T20:46:29.870Z,62.00
2022-09-16T20:48:59.071Z,62.00
2022-09-16T20:51:31.577Z,62.10
2022-09-16T20:54:07.065Z,62.40
2022-09-16T20:56:38.491Z,62.80
2022-09-16T20:59:08.095Z,63.10
2022-09-16T21:01:37.321Z,63.60
2022-09-16T21:04:06.624Z,64.00
2022-09-16T21:06:35.116Z,64.80
2022-09-16T21:09:05.438Z,65.70
2022-09-16T21:11:33.244Z,66.60
2022-09-16T21:14:12.035Z,68.00
2022-09-16T21:16:39.719Z,69.70
2022-09-16T21:19:12.867Z,71.80
2022-09-16T21:21:42.430Z,73.60
2022-09-16T21:24:09.853Z,74.80
2022-09-16T21:26:38.852Z,75.30
2022-09-16T21:29:11.540Z,76.50
2022-09-16T21:31:40.915Z,76.80
2022-09-16T21:34:13.859Z,77.10
2022-09-16T21:36:40.905Z,77.70
2022-09-16T21:39:09.534Z,78.50
2022-09-16T21:41:37.769Z,79.10
2022-09-16T21:44:05.187Z,79.70
2022-09-16T21:46:41.313Z,80.20
2022-09-16T21:49:25.771Z,80.40
2022-09-16T21:51:55.603Z,80.80
2022-09-16T21:54:23.717Z,80.50
2022-09-16T21:56:51.372Z,80.60
2022-09-16T21:59:22.102Z,80.70
2022-09-16T22:01:51.495Z,80.50
2022-09-16T22:04:23.477Z,80.00
2022-09-16T22:06:52.868Z,79.40
2022-09-16T22:09:20.409Z,78.10
2022-09-16T22:11:47.623Z,77.80
2022-09-16T22:14:16.094Z,77.90
2022-09-16T22:16:43.497Z,78.10
2022-09-16T22:19:17.096Z,78.30
2022-09-16T22:21:47.146Z,78.50
2022-09-16T22:24:17.333Z,78.90
2022-09-16T22:26:44.552Z,79.80
2022-09-16T22:29:12.350Z,79.40
2022-09-16T22:31:41.395Z,79.90
2022-09-16T22:34:09.249Z,80.20
2022-09-16T22:36:37.881Z,80.60
2022-09-16T22:39:16.424Z,80.90
2022-09-16T22:41:43.457Z,81.40
2022-09-16T22:44:10.401Z,81.90
2022-09-16T22:46:46.316Z,82.40
2022-09-16T22:49:14.453Z,82.70
2022-09-16T22:51:41.851Z,83.10
2022-09-16T22:54:11.196Z,83.50
2022-09-16T22:56:38.361Z,83.70
2022-09-16T22:59:06.635Z,84.10
2022-09-16T23:01:39.024Z,84.00
2022-09-16T23:04:08.233Z,84.30
2022-09-16T23:06:37.147Z,84.40
2022-09-16T23:09:06.185Z,84.60
2022-09-16T23:11:35.169Z,84.80
2022-09-16T23:14:03.021Z,84.80
2022-09-16T23:16:35.123Z,84.80
2022-09-16T23:19:05.469Z,84.90
2022-09-16T23:21:32.866Z,84.90
2022-09-16T23:24:01.920Z,85.00
2022-09-16T23:26:31.721Z,84.90
2022-09-16T23:29:00.814Z,84.80
2022-09-16T23:31:33.315Z,84.60
2022-09-16T23:34:01.188Z,84.50
2022-09-16T23:36:28.667Z,84.40
2022-09-16T23:38:56.059Z,84.30
2022-09-16T23:41:27.813Z,84.20
2022-09-16T23:43:56.528Z,84.20
2022-09-16T23:46:26.069Z,84.10
2022-09-16T23:48:53.530Z,84.10
2022-09-16T23:51:25.989Z,84.10
2022-09-16T23:53:55.365Z,83.90
2022-09-16T23:56:22.577Z,83.80
2022-09-16T23:58:51.054Z,83.70
